Time;durP1;ratioP1;P1;durP2;ratioP2;P2;SDS_P1;SDS_P2;PMS_P1;PMS_P2;Temp;Humidity;BMP_temperature;BMP_pressure;BME280_temperature;BME280_humidity;BME280_pressure;Samples;Min_cycle;Max_cycle;Signal;HPM_P1;HPM_P2
2024/04/27 00:01:37;;;;;;;;;;;19.10;55.60;;;;;;1546585;75;1699;-67
2024/04/27 00:03:40;;;;;;;;;;;19.10;55.50;;;;;;1535690;75;1673;-67
2024/04/27 00:05:42;;;;;;;;;;;19.10;55.60;;;;;;1546714;75;1900;-68
2024/04/27 00:07:44;;;;;;;;;;;19.10;55.60;;;;;;1543059;75;638;-69
2024/04/27 00:09:46;;;;;;;;;;;19.10;55.60;;;;;;1545439;75;648;-67
2024/04/27 00:11:48;;;;;;;;;;;19.10;55.60;;;;;;1558618;75;1943;-67
2024/04/27 00:13:50;;;;;;;;;;;19.00;55.50;;;;;;1546214;75;1540;-68
2024/04/27 00:15:52;;;;;;;;;;;19.10;55.60;;;;;;1557469;75;705;-67
2024/04/27 00:17:53;;;;;;;;;;;19.10;55.70;;;;;;1538154;75;748;-67
2024/04/27 00:19:55;;;;;;;;;;;19.10;55.70;;;;;;1545818;75;723;-68
2024/04/27 00:21:57;;;;;;;;;;;19.00;55.50;;;;;;1538254;75;1116;-68
2024/04/27 00:23:59;;;;;;;;;;;19.10;55.70;;;;;;1548836;75;737;-67
2024/04/27 00:26:01;;;;;;;;;;;19.10;55.70;;;;;;1540023;75;645;-69
2024/04/27 00:28:03;;;;;;;;;;;19.70;56.10;;;;;;1543874;75;1548;-67
2024/04/27 00:30:06;;;;;;;;;;;19.00;55.60;;;;;;1558913;75;673;-67
2024/04/27 00:32:10;;;;;;;;;;;19.00;55.70;;;;;;1545166;75;1935;-67
2024/04/27 00:34:11;;;;;;;;;;;19.10;55.80;;;;;;1543886;75;1772;-67
2024/04/27 00:36:16;;;;;;;;;;;19.10;55.80;;;;;;1555288;75;897;-70
2024/04/27 00:38:18;;;;;;;;;;;19.10;55.90;;;;;;1552268;75;733;-68
2024/04/27 00:40:19;;;;;;;;;;;19.10;55.80;;;;;;1547416;75;708;-68
2024/04/27 00:42:21;;;;;;;;;;;19.00;55.70;;;;;;1537906;75;1607;-69
2024/04/27 00:44:23;;;;;;;;;;;19.10;55.90;;;;;;1537990;75;807;-67
2024/04/27 00:46:25;;;;;;;;;;;19.10;55.90;;;;;;1543319;75;676;-69
2024/04/27 00:48:27;;;;;;;;;;;19.00;55.80;;;;;;1557883;75;709;-69
2024/04/27 00:50:29;;;;;;;;;;;19.00;55.80;;;;;;1552942;75;730;-66
2024/04/27 00:52:31;;;;;;;;;;;19.00;55.80;;;;;;1553283;75;1949;-68
2024/04/27 00:54:34;;;;;;;;;;;19.00;55.80;;;;;;1536277;75;643;-68
2024/04/27 00:56:36;;;;;;;;;;;19.00;55.80;;;;;;1525672;75;1492;-69
2024/04/27 00:58:38;;;;;;;;;;;19.00;55.90;;;;;;1550070;75;729;-69
2024/04/27 01:00:39;;;;;;;;;;;19.00;55.90;;;;;;1559552;75;746;-69
2024/04/27 01:02:41;;;;;;;;;;;19.80;56.40;;;;;;1563841;75;1179;-68
2024/04/27 01:04:43;;;;;;;;;;;19.00;55.90;;;;;;1542599;75;775;-66
2024/04/27 01:06:45;;;;;;;;;;;19.00;56.00;;;;;;1542013;75;720;-68
2024/04/27 01:08:49;;;;;;;;;;;19.00;56.00;;;;;;1543029;75;714;-67
2024/04/27 01:10:50;;;;;;;;;;;19.00;55.90;;;;;;1544977;75;1551;-68
2024/04/27 01:12:52;;;;;;;;;;;19.00;55.90;;;;;;1554408;75;1939;-67
2024/04/27 01:14:54;;;;;;;;;;;19.00;56.00;;;;;;1549369;75;690;-67
2024/04/27 01:16:56;;;;;;;;;;;19.00;56.00;;;;;;1546849;75;671;-66
2024/04/27 01:19:01;;;;;;;;;;;19.00;56.10;;;;;;1549033;75;782;-67
2024/04/27 01:21:01;;;;;;;;;;;19.00;56.10;;;;;;1546893;75;1655;-69
2024/04/27 01:23:04;;;;;;;;;;;19.00;56.00;;;;;;1545691;75;690;-67
2024/04/27 01:25:05;;;;;;;;;;;19.10;56.20;;;;;;1552733;75;1537;-67
2024/04/27 01:27:07;;;;;;;;;;;19.00;56.10;;;;;;1537969;75;711;-69
2024/04/27 01:29:09;;;;;;;;;;;19.00;56.20;;;;;;1543516;75;683;-68
2024/04/27 01:31:11;;;;;;;;;;;19.10;56.30;;;;;;1542825;75;1950;-69
2024/04/27 01:33:14;;;;;;;;;;;19.00;56.10;;;;;;1536980;75;719;-71
2024/04/27 01:35:16;;;;;;;;;;;19.10;56.30;;;;;;1539530;75;700;-67
2024/04/27 01:37:18;;;;;;;;;;;19.00;56.20;;;;;;1543537;75;655;-68
2024/04/27 01:39:20;;;;;;;;;;;19.00;56.30;;;;;;1543172;75;1601;-67
2024/04/27 01:41:22;;;;;;;;;;;19.10;56.40;;;;;;1556761;75;1144;-68
2024/04/27 01:43:24;;;;;;;;;;;19.00;56.30;;;;;;1538446;75;805;-65
2024/04/27 01:45:26;;;;;;;;;;;19.00;56.30;;;;;;1549018;75;805;-66
2024/04/27 01:47:27;;;;;;;;;;;19.10;56.50;;;;;;1546871;75;675;-67
2024/04/27 01:49:29;;;;;;;;;;;19.10;56.50;;;;;;1542378;75;782;-69
2024/04/27 01:51:31;;;;;;;;;;;19.10;56.50;;;;;;1540876;75;1927;-66
2024/04/27 01:53:33;;;;;;;;;;;19.00;56.50;;;;;;1545934;75;1535;-67
2024/04/27 01:55:35;;;;;;;;;;;19.10;56.60;;;;;;1556531;75;659;-66
2024/04/27 01:57:37;;;;;;;;;;;19.10;56.60;;;;;;1560430;75;729;-67
2024/04/27 01:59:39;;;;;;;;;;;19.10;56.60;;;;;;1541746;75;671;-70
2024/04/27 02:01:41;;;;;;;;;;;19.00;56.50;;;;;;1552270;75;1172;-67
2024/04/27 02:03:43;;;;;;;;;;;19.10;56.70;;;;;;1548952;75;740;-69
2024/04/27 02:05:44;;;;;;;;;;;19.00;56.60;;;;;;1535224;75;744;-71
2024/04/27 02:07:47;;;;;;;;;;;19.80;57.10;;;;;;1541512;75;1307;-66
2024/04/27 02:09:49;;;;;;;;;;;19.10;56.80;;;;;;1547625;75;645;-68
2024/04/27 02:11:51;;;;;;;;;;;19.10;57.40;;;;;;1544861;75;1943;-67
2024/04/27 02:13:53;;;;;;;;;;;19.00;57.30;;;;;;1541953;75;730;-67
2024/04/27 02:20:24;;;;;;;;;;;19.10;57.40;;;;;;1544834;75;1611;-67
2024/04/27 02:22:26;;;;;;;;;;;19.10;57.50;;;;;;1550201;75;1184;-65
2024/04/27 02:24:28;;;;;;;;;;;19.10;57.50;;;;;;1538385;75;684;-67
2024/04/27 02:26:30;;;;;;;;;;;19.10;57.50;;;;;;1545403;75;655;-69
2024/04/27 02:28:32;;;;;;;;;;;19.10;57.50;;;;;;1539300;75;750;-66
2024/04/27 02:30:34;;;;;;;;;;;19.10;57.60;;;;;;1547457;75;761;-70
2024/04/27 02:32:36;;;;;;;;;;;19.10;57.50;;;;;;1543786;75;1923;-67
2024/04/27 02:34:38;;;;;;;;;;;19.10;57.50;;;;;;1543187;75;1569;-64
2024/04/27 02:36:41;;;;;;;;;;;19.10;57.50;;;;;;1557415;75;782;-67
2024/04/27 02:38:44;;;;;;;;;;;19.10;57.60;;;;;;1547738;75;654;-67
2024/04/27 02:40:46;;;;;;;;;;;19.10;57.60;;;;;;1547321;75;1131;-66
2024/04/27 02:42:47;;;;;;;;;;;19.10;57.50;;;;;;1546669;75;614;-68
2024/04/27 02:44:49;;;;;;;;;;;19.10;57.60;;;;;;1555799;75;673;-70
2024/04/27 02:46:51;;;;;;;;;;;19.10;57.60;;;;;;1542511;75;727;-66
2024/04/27 02:48:53;;;;;;;;;;;19.10;57.60;;;;;;1544102;75;1540;-67
2024/04/27 02:50:55;;;;;;;;;;;19.10;57.60;;;;;;1560225;75;1103;-68
2024/04/27 02:52:57;;;;;;;;;;;19.10;57.60;;;;;;1539489;75;1950;-68
2024/04/27 02:54:59;;;;;;;;;;;19.10;57.60;;;;;;1544517;75;786;-70
2024/04/27 02:57:00;;;;;;;;;;;19.10;57.60;;;;;;1556615;75;686;-68
2024/04/27 02:59:02;;;;;;;;;;;19.10;57.60;;;;;;1543928;75;696;-67
2024/04/27 03:01:05;;;;;;;;;;;19.10;57.70;;;;;;1530880;75;1124;-67
2024/04/27 03:03:07;;;;;;;;;;;19.10;57.70;;;;;;1543955;75;1591;-67
2024/04/27 03:05:08;;;;;;;;;;;19.10;57.60;;;;;;1540110;75;750;-69
2024/04/27 03:07:11;;;;;;;;;;;19.10;57.60;;;;;;1541870;75;743;-67
2024/04/27 03:09:13;;;;;;;;;;;19.10;57.70;;;;;;1548031;75;796;-68
2024/04/27 03:11:14;;;;;;;;;;;19.10;57.70;;;;;;1547694;75;1145;-67
2024/04/27 03:13:16;;;;;;;;;;;19.10;57.60;;;;;;1543975;75;1943;-68
2024/04/27 03:15:18;;;;;;;;;;;19.10;57.60;;;;;;1543150;75;799;-67
2024/04/27 03:17:20;;;;;;;;;;;19.10;57.60;;;;;;1548207;75;1568;-67
2024/04/27 03:19:22;;;;;;;;;;;19.10;57.70;;;;;;1556101;75;770;-69
2024/04/27 03:21:24;;;;;;;;;;;19.50;57.90;;;;;;1540921;75;1185;-70
2024/04/27 03:23:26;;;;;;;;;;;19.10;57.70;;;;;;1543920;75;708;-69
2024/04/27 03:25:28;;;;;;;;;;;19.10;57.80;;;;;;1543580;75;634;-72
2024/04/27 03:27:30;;;;;;;;;;;19.10;57.70;;;;;;1544795;75;656;-66
2024/04/27 03:29:32;;;;;;;;;;;19.10;57.70;;;;;;1533263;75;795;-67
2024/04/27 03:31:34;;;;;;;;;;;19.10;57.70;;;;;;1546737;75;1580;-68
2024/04/27 03:33:36;;;;;;;;;;;19.10;57.70;;;;;;1549242;75;1947;-68
2024/04/27 03:35:38;;;;;;;;;;;19.10;57.80;;;;;;1551855;75;666;-67
2024/04/27 03:37:39;;;;;;;;;;;19.10;57.80;;;;;;1541352;75;693;-69
2024/04/27 03:39:41;;;;;;;;;;;19.10;57.80;;;;;;1544153;75;742;-69
2024/04/27 03:41:43;;;;;;;;;;;19.10;57.80;;;;;;1542705;75;1153;-69
2024/04/27 03:43:45;;;;;;;;;;;19.10;57.80;;;;;;1542937;75;708;-66
2024/04/27 03:45:47;;;;;;;;;;;19.10;57.80;;;;;;1543870;75;1595;-67
2024/04/27 03:47:49;;;;;;;;;;;19.10;57.80;;;;;;1541983;75;735;-68
2024/04/27 03:49:51;;;;;;;;;;;19.00;57.80;;;;;;1544955;75;665;-68
2024/04/27 03:51:53;;;;;;;;;;;19.10;57.90;;;;;;1558875;75;1957;-69
2024/04/27 03:53:55;;;;;;;;;;;19.10;57.90;;;;;;1550169;75;800;-68
2024/04/27 03:55:57;;;;;;;;;;;19.10;57.90;;;;;;1556277;75;686;-71
2024/04/27 03:57:59;;;;;;;;;;;19.30;57.90;;;;;;1541428;75;763;-67
2024/04/27 04:00:01;;;;;;;;;;;19.10;57.80;;;;;;1546959;75;1553;-68
2024/04/27 04:02:03;;;;;;;;;;;19.10;57.90;;;;;;1546533;75;1160;-69
2024/04/27 04:04:05;;;;;;;;;;;19.10;57.80;;;;;;1545847;75;776;-70
2024/04/27 04:06:07;;;;;;;;;;;19.10;57.90;;;;;;1541478;75;761;-66
2024/04/27 04:08:09;;;;;;;;;;;19.10;57.80;;;;;;1544251;75;718;-71
2024/04/27 04:10:10;;;;;;;;;;;19.10;57.90;;;;;;1532307;75;737;-68
2024/04/27 04:12:14;;;;;;;;;;;19.10;57.90;;;;;;1531049;75;1957;-68
2024/04/27 04:14:16;;;;;;;;;;;19.10;57.90;;;;;;1547511;75;1533;-70
2024/04/27 04:16:18;;;;;;;;;;;19.10;57.90;;;;;;1558501;75;746;-68
2024/04/27 04:18:20;;;;;;;;;;;19.10;57.80;;;;;;1550849;75;677;-68
2024/04/27 04:20:22;;;;;;;;;;;19.00;57.80;;;;;;1547599;75;787;-69
2024/04/27 04:22:24;;;;;;;;;;;19.10;57.90;;;;;;1535772;75;1166;-69
2024/04/27 04:24:26;;;;;;;;;;;19.10;57.90;;;;;;1533778;75;691;-68
2024/04/27 04:26:28;;;;;;;;;;;19.10;57.90;;;;;;1539827;75;736;-68
2024/04/27 04:28:30;;;;;;;;;;;19.10;57.90;;;;;;1551267;75;1587;-68
2024/04/27 04:30:31;;;;;;;;;;;19.10;57.90;;;;;;1528570;75;755;-66
2024/04/27 04:32:33;;;;;;;;;;;19.10;57.90;;;;;;1545162;75;1936;-67
2024/04/27 04:34:35;;;;;;;;;;;19.20;58.00;;;;;;1539302;75;693;-68
2024/04/27 04:36:43;;;;;;;;;;;19.10;58.00;;;;;;1533218;75;762;-67
2024/04/27 04:38:45;;;;;;;;;;;19.10;58.00;;;;;;1545354;75;741;-68
2024/04/27 04:40:46;;;;;;;;;;;19.10;58.00;;;;;;1535266;75;1160;-66
2024/04/27 04:42:50;;;;;;;;;;;19.10;58.00;;;;;;1539301;75;1597;-68
2024/04/27 04:44:52;;;;;;;;;;;19.10;58.00;;;;;;1558594;75;736;-71
2024/04/27 04:46:54;;;;;;;;;;;19.10;58.00;;;;;;1542134;75;723;-70
2024/04/27 04:48:56;;;;;;;;;;;19.20;58.00;;;;;;1551639;75;796;-69
2024/04/27 04:51:01;;;;;;;;;;;19.10;58.00;;;;;;1537255;75;1122;-68
2024/04/27 04:53:01;;;;;;;;;;;19.10;58.00;;;;;;1539549;75;1923;-68
2024/04/27 04:55:03;;;;;;;;;;;19.10;58.00;;;;;;1539971;75;1587;-69
2024/04/27 04:57:05;;;;;;;;;;;19.10;58.00;;;;;;1546333;75;855;-67
2024/04/27 04:59:08;;;;;;;;;;;19.10;58.00;;;;;;1538060;75;709;-68
2024/04/27 05:01:10;;;;;;;;;;;19.10;58.00;;;;;;1546722;75;1168;-66
2024/04/27 05:03:12;;;;;;;;;;;19.10;58.00;;;;;;1531098;75;696;-66
2024/04/27 05:05:16;;;;;;;;;;;19.10;58.00;;;;;;1544567;75;1093;-69
2024/04/27 05:07:17;;;;;;;;;;;19.10;58.00;;;;;;1542474;75;710;-68
2024/04/27 05:09:19;;;;;;;;;;;19.10;58.00;;;;;;1539213;75;1572;-66
2024/04/27 05:11:21;;;;;;;;;;;19.10;58.00;;;;;;1539746;75;1144;-68
2024/04/27 05:13:23;;;;;;;;;;;19.20;57.90;;;;;;1520529;75;1935;-68
2024/04/27 05:15:25;;;;;;;;;;;19.10;57.90;;;;;;1534791;75;719;-69
2024/04/27 05:17:27;;;;;;;;;;;19.10;57.90;;;;;;1528569;75;628;-67
2024/04/27 05:19:29;;;;;;;;;;;19.10;57.90;;;;;;1536231;75;666;-68
2024/04/27 05:21:31;;;;;;;;;;;19.10;57.90;;;;;;1530775;75;1130;-67
2024/04/27 05:23:33;;;;;;;;;;;19.10;57.90;;;;;;1539969;75;1575;-68
2024/04/27 05:25:34;;;;;;;;;;;19.10;57.90;;;;;;1547440;75;762;-68
2024/04/27 05:27:36;;;;;;;;;;;19.20;57.90;;;;;;1552860;75;798;-67
2024/04/27 05:29:38;;;;;;;;;;;19.10;57.90;;;;;;1535010;75;618;-68
2024/04/27 05:31:40;;;;;;;;;;;19.10;57.90;;;;;;1542399;75;1186;-67
2024/04/27 05:33:42;;;;;;;;;;;19.10;57.90;;;;;;1563936;75;1930;-68
2024/04/27 05:35:44;;;;;;;;;;;19.10;57.90;;;;;;1535907;75;725;-65
2024/04/27 05:37:46;;;;;;;;;;;19.10;57.90;;;;;;1546420;75;1553;-69
2024/04/27 05:39:48;;;;;;;;;;;19.10;57.90;;;;;;1543942;75;710;-70
2024/04/27 05:41:49;;;;;;;;;;;19.10;57.90;;;;;;1537744;75;1142;-68
2024/04/27 05:43:51;;;;;;;;;;;19.10;57.90;;;;;;1540109;75;611;-67
2024/04/27 05:45:53;;;;;;;;;;;19.20;57.80;;;;;;1535924;75;650;-67
2024/04/27 05:47:55;;;;;;;;;;;19.10;57.80;;;;;;1536037;75;687;-67
2024/04/27 05:50:04;;;;;;;;;;;19.10;57.90;;;;;;1539791;75;768;-67
2024/04/27 05:52:00;;;;;;;;;;;19.10;57.80;;;;;;1542184;75;1665;-68
2024/04/27 05:54:02;;;;;;;;;;;19.20;57.80;;;;;;1540915;75;1935;-66
2024/04/27 05:56:04;;;;;;;;;;;19.20;57.80;;;;;;1545433;75;778;-66
2024/04/27 05:58:08;;;;;;;;;;;19.10;57.80;;;;;;1544421;75;657;-67
2024/04/27 06:00:10;;;;;;;;;;;19.10;57.80;;;;;;1541233;75;657;-67
2024/04/27 06:02:12;;;;;;;;;;;19.20;57.80;;;;;;1545083;75;1141;-67
2024/04/27 06:04:13;;;;;;;;;;;19.10;57.80;;;;;;1543108;75;646;-69
2024/04/27 06:06:15;;;;;;;;;;;19.10;57.80;;;;;;1543555;75;1640;-68
2024/04/27 06:08:17;;;;;;;;;;;19.10;57.80;;;;;;1540492;75;704;-68
2024/04/27 06:10:19;;;;;;;;;;;19.10;57.80;;;;;;1553170;75;634;-68
2024/04/27 06:12:21;;;;;;;;;;;19.10;57.80;;;;;;1549022;75;1103;-67
2024/04/27 06:14:23;;;;;;;;;;;19.10;57.90;;;;;;1536533;75;1914;-70
2024/04/27 06:16:25;;;;;;;;;;;19.10;57.90;;;;;;1542959;75;675;-67
2024/04/27 06:18:26;;;;;;;;;;;19.10;57.90;;;;;;1542101;75;989;-68
2024/04/27 06:20:28;;;;;;;;;;;19.10;57.90;;;;;;1538830;75;680;-66
2024/04/27 06:22:30;;;;;;;;;;;19.10;57.90;;;;;;1537775;75;1125;-68
2024/04/27 06:24:32;;;;;;;;;;;19.10;57.90;;;;;;1555328;75;595;-66
2024/04/27 06:26:34;;;;;;;;;;;19.10;57.90;;;;;;1545089;75;650;-67
2024/04/27 06:28:36;;;;;;;;;;;19.10;57.90;;;;;;1541520;75;764;-67
2024/04/27 06:30:38;;;;;;;;;;;19.10;57.90;;;;;;1530085;75;690;-67
2024/04/27 06:32:40;;;;;;;;;;;19.20;57.90;;;;;;1540281;75;1119;-67
2024/04/27 06:34:42;;;;;;;;;;;19.10;57.90;;;;;;1537564;75;1942;-67
2024/04/27 06:36:44;;;;;;;;;;;19.10;58.00;;;;;;1534339;75;800;-70
2024/04/27 06:38:46;;;;;;;;;;;19.10;58.00;;;;;;1536655;75;793;-69
2024/04/27 06:40:48;;;;;;;;;;;19.20;58.20;;;;;;1535292;75;1106;-66
2024/04/27 06:42:49;;;;;;;;;;;19.10;58.20;;;;;;1534685;75;719;-71
2024/04/27 06:44:51;;;;;;;;;;;19.10;58.40;;;;;;1531604;75;689;-69
2024/04/27 06:46:53;;;;;;;;;;;19.20;58.40;;;;;;1535839;75;664;-71
2024/04/27 06:48:55;;;;;;;;;;;19.20;58.50;;;;;;1541632;75;1572;-69
2024/04/27 06:50:57;;;;;;;;;;;19.30;58.60;;;;;;1544990;75;1124;-68
2024/04/27 06:52:59;;;;;;;;;;;19.30;58.60;;;;;;1544561;75;677;-68
2024/04/27 06:55:01;;;;;;;;;;;19.30;58.50;;;;;;1535605;75;713;-70
2024/04/27 06:57:03;;;;;;;;;;;19.20;58.30;;;;;;1537628;75;757;-68
2024/04/27 06:59:05;;;;;;;;;;;19.20;58.30;;;;;;1542685;75;739;-69
2024/04/27 07:01:07;;;;;;;;;;;19.20;58.30;;;;;;1542619;75;1190;-68
2024/04/27 07:03:09;;;;;;;;;;;19.30;58.30;;;;;;1535402;75;1501;-69
2024/04/27 07:05:10;;;;;;;;;;;19.30;58.30;;;;;;1546431;75;725;-68
2024/04/27 07:07:12;;;;;;;;;;;19.20;58.10;;;;;;1554770;75;729;-68
2024/04/27 07:09:14;;;;;;;;;;;19.20;58.10;;;;;;1547112;75;697;-69
2024/04/27 07:11:16;;;;;;;;;;;19.20;58.10;;;;;;1542129;75;1091;-69
2024/04/27 07:13:18;;;;;;;;;;;19.20;58.10;;;;;;1538577;75;1928;-68
2024/04/27 07:15:20;;;;;;;;;;;19.20;58.10;;;;;;1542145;75;728;-70
2024/04/27 07:17:22;;;;;;;;;;;19.20;58.10;;;;;;1539017;75;1587;-68
2024/04/27 07:19:24;;;;;;;;;;;19.20;58.00;;;;;;1545437;75;807;-70
2024/04/27 07:21:25;;;;;;;;;;;19.20;58.00;;;;;;1534583;75;1106;-69
2024/04/27 07:23:27;;;;;;;;;;;19.20;58.00;;;;;;1533640;75;727;-71
2024/04/27 07:25:29;;;;;;;;;;;19.20;58.00;;;;;;1546554;75;714;-69
2024/04/27 07:27:31;;;;;;;;;;;19.30;58.00;;;;;;1530427;75;733;-71
2024/04/27 07:29:33;;;;;;;;;;;19.20;58.10;;;;;;1533454;75;740;-67
2024/04/27 07:31:35;;;;;;;;;;;19.30;58.60;;;;;;1546251;75;1614;-66
2024/04/27 07:33:37;;;;;;;;;;;19.30;58.40;;;;;;1549372;75;1955;-69
2024/04/27 07:35:38;;;;;;;;;;;19.30;58.30;;;;;;1551483;75;743;-66
2024/04/27 07:37:40;;;;;;;;;;;19.30;57.90;;;;;;1550154;75;685;-68
2024/04/27 07:39:42;;;;;;;;;;;19.30;56.00;;;;;;1549883;75;740;-68
2024/04/27 07:41:44;;;;;;;;;;;19.30;55.10;;;;;;1555834;75;1121;-70
2024/04/27 07:43:46;;;;;;;;;;;19.20;53.10;;;;;;1545890;75;1564;-67
2024/04/27 07:45:48;;;;;;;;;;;19.20;51.50;;;;;;1544455;75;774;-65
2024/04/27 07:47:50;;;;;;;;;;;19.20;52.90;;;;;;1543809;75;672;-68
2024/04/27 07:49:51;;;;;;;;;;;19.20;53.10;;;;;;1549498;75;867;-70
2024/04/27 07:51:53;;;;;;;;;;;19.20;52.10;;;;;;1545761;75;1141;-68
2024/04/27 07:53:55;;;;;;;;;;;19.20;52.80;;;;;;1550555;75;1939;-68
2024/04/27 07:55:57;;;;;;;;;;;19.20;53.00;;;;;;1541225;75;633;-70
2024/04/27 07:57:59;;;;;;;;;;;19.20;53.30;;;;;;1553256;75;1505;-68
2024/04/27 08:00:01;;;;;;;;;;;19.10;53.00;;;;;;1562845;75;696;-70
2024/04/27 08:02:03;;;;;;;;;;;19.20;52.80;;;;;;1534172;75;1128;-68
2024/04/27 08:04:05;;;;;;;;;;;19.20;52.70;;;;;;1548912;75;714;-69
2024/04/27 08:06:07;;;;;;;;;;;19.20;52.30;;;;;;1541332;75;808;-67
2024/04/27 08:08:09;;;;;;;;;;;19.20;51.90;;;;;;1541001;75;662;-70
2024/04/27 08:10:11;;;;;;;;;;;19.20;51.50;;;;;;1543083;75;815;-66
2024/04/27 08:12:12;;;;;;;;;;;19.10;51.80;;;;;;1538335;75;1574;-68
2024/04/27 08:14:14;;;;;;;;;;;19.20;51.70;;;;;;1553383;75;2085;-71
2024/04/27 08:16:16;;;;;;;;;;;19.20;51.40;;;;;;1559017;75;739;-68
2024/04/27 08:18:18;;;;;;;;;;;19.20;51.30;;;;;;1533109;75;809;-67
2024/04/27 08:20:26;;;;;;;;;;;19.10;51.10;;;;;;1539107;75;775;-68
2024/04/27 08:22:26;;;;;;;;;;;19.10;51.10;;;;;;1543464;75;1632;-67
2024/04/27 08:24:28;;;;;;;;;;;19.10;51.00;;;;;;1541501;75;659;-67
2024/04/27 08:26:30;;;;;;;;;;;19.20;50.90;;;;;;1544896;75;1571;-68
2024/04/27 08:28:32;;;;;;;;;;;19.10;50.60;;;;;;1551347;75;789;-67
2024/04/27 08:30:33;;;;;;;;;;;19.20;50.40;;;;;;1554460;75;688;-68
2024/04/27 08:32:35;;;;;;;;;;;19.20;50.50;;;;;;1546511;75;1190;-69
2024/04/27 08:34:37;;;;;;;;;;;19.20;50.40;;;;;;1547267;75;1931;-67
2024/04/27 08:36:39;;;;;;;;;;;19.20;50.20;;;;;;1545002;75;840;-68
2024/04/27 08:38:44;;;;;;;;;;;19.20;50.50;;;;;;1541556;75;708;-67
2024/04/27 08:40:46;;;;;;;;;;;19.20;50.20;;;;;;1544660;75;1360;-69
2024/04/27 08:42:47;;;;;;;;;;;19.20;50.30;;;;;;1542435;75;1121;-69
2024/04/27 08:44:52;;;;;;;;;;;19.20;50.40;;;;;;1527091;75;792;-66
2024/04/27 08:46:54;;;;;;;;;;;19.20;50.20;;;;;;1550667;75;683;-67
2024/04/27 08:48:57;;;;;;;;;;;19.20;50.00;;;;;;1547511;75;710;-68
2024/04/27 08:50:59;;;;;;;;;;;19.30;50.00;;;;;;1544756;75;1114;-66
2024/04/27 08:53:01;;;;;;;;;;;19.20;49.80;;;;;;1545824;75;691;-67
2024/04/27 08:55:03;;;;;;;;;;;19.20;49.60;;;;;;1549113;75;1939;-66
2024/04/27 08:57:05;;;;;;;;;;;19.30;49.60;;;;;;1548974;75;823;-67
2024/04/27 08:59:06;;;;;;;;;;;19.20;49.40;;;;;;1550583;75;681;-68
2024/04/27 09:01:08;;;;;;;;;;;19.20;49.20;;;;;;1537824;75;1169;-65
2024/04/27 09:03:10;;;;;;;;;;;19.20;49.10;;;;;;1553516;75;683;-67
2024/04/27 09:05:13;;;;;;;;;;;19.20;49.20;;;;;;1552914;75;706;-68
2024/04/27 09:07:14;;;;;;;;;;;19.20;49.00;;;;;;1550975;75;656;-67
2024/04/27 09:09:18;;;;;;;;;;;19.20;48.90;;;;;;1542146;75;1577;-69
2024/04/27 09:11:23;;;;;;;;;;;19.30;48.80;;;;;;1544590;75;1141;-67
2024/04/27 09:13:25;;;;;;;;;;;19.20;48.60;;;;;;1545546;75;745;-67
2024/04/27 09:15:27;;;;;;;;;;;19.20;48.40;;;;;;1561105;75;1937;-68
2024/04/27 09:17:29;;;;;;;;;;;19.20;48.20;;;;;;1536481;75;650;-70
2024/04/27 09:19:31;;;;;;;;;;;19.20;47.90;;;;;;1547155;75;657;-68
2024/04/27 09:21:35;;;;;;;;;;;19.20;47.90;;;;;;1553583;75;1112;-68
2024/04/27 09:23:41;;;;;;;;;;;19.20;47.90;;;;;;1561173;75;1291;-67
2024/04/27 09:25:46;;;;;;;;;;;19.20;47.80;;;;;;1545708;75;1219;-66
2024/04/27 09:27:48;;;;;;;;;;;19.20;47.80;;;;;;1561122;74;685;-68
2024/04/27 09:29:50;;;;;;;;;;;19.20;47.60;;;;;;1531062;75;595;-67
2024/04/27 09:31:52;;;;;;;;;;;19.20;47.50;;;;;;1546694;75;1157;-67
2024/04/27 09:33:54;;;;;;;;;;;19.20;47.50;;;;;;1551068;75;667;-69
2024/04/27 09:35:56;;;;;;;;;;;19.20;47.30;;;;;;1540943;75;1952;-64
2024/04/27 09:38:06;;;;;;;;;;;19.20;47.20;;;;;;1553850;75;1571;-68
2024/04/27 09:40:09;;;;;;;;;;;19.20;47.10;;;;;;1546480;75;638;-67
2024/04/27 09:42:11;;;;;;;;;;;19.20;46.90;;;;;;1540319;75;1074;-66
2024/04/27 09:44:13;;;;;;;;;;;19.20;46.80;;;;;;1555475;75;787;-68
2024/04/27 09:46:19;;;;;;;;;;;19.20;46.60;;;;;;1546930;75;643;-67
2024/04/27 09:48:22;;;;;;;;;;;19.20;46.70;;;;;;1545102;75;1795;-69
2024/04/27 09:50:25;;;;;;;;;;;19.20;46.70;;;;;;1543167;75;1547;-66
2024/04/27 09:52:27;;;;;;;;;;;19.20;46.60;;;;;;1561953;75;1127;-67
2024/04/27 09:54:29;;;;;;;;;;;19.20;46.50;;;;;;1551254;75;1915;-68
2024/04/27 09:56:31;;;;;;;;;;;19.10;46.30;;;;;;1545620;75;699;-68
2024/04/27 09:58:32;;;;;;;;;;;19.20;46.20;;;;;;1547016;75;745;-67
2024/04/27 10:00:35;;;;;;;;;;;19.20;45.90;;;;;;1547478;75;731;-69
2024/04/27 10:02:36;;;;;;;;;;;19.20;45.80;;;;;;1552700;75;1098;-66
2024/04/27 10:04:38;;;;;;;;;;;19.20;45.70;;;;;;1545550;75;1523;-67
2024/04/27 10:06:40;;;;;;;;;;;19.10;45.70;;;;;;1543447;75;818;-68
2024/04/27 10:08:49;;;;;;;;;;;19.10;45.70;;;;;;1521206;76;1083;-70
2024/04/27 10:10:46;;;;;;;;;;;19.20;45.50;;;;;;1543286;75;1639;-67
2024/04/27 10:12:59;;;;;;;;;;;19.20;45.60;;;;;;1550383;75;1146;-68
2024/04/27 10:15:03;;;;;;;;;;;19.20;45.50;;;;;;1533212;75;1909;-67
2024/04/27 10:17:06;;;;;;;;;;;19.10;45.50;;;;;;1545051;75;1492;-67
2024/04/27 10:19:13;;;;;;;;;;;19.10;45.40;;;;;;1544168;75;1880;-68
2024/04/27 10:21:15;;;;;;;;;;;19.10;45.20;;;;;;1535459;75;1150;-74
2024/04/27 10:23:21;;;;;;;;;;;19.10;45.20;;;;;;1540449;75;736;-66
2024/04/27 10:25:22;;;;;;;;;;;19.10;45.20;;;;;;1538839;75;1204;-70
2024/04/27 10:27:24;;;;;;;;;;;19.10;45.10;;;;;;1539020;75;834;-66
2024/04/27 10:29:30;;;;;;;;;;;19.10;45.10;;;;;;1536495;75;742;-66
2024/04/27 10:31:32;;;;;;;;;;;19.20;45.50;;;;;;1550568;75;1180;-67
2024/04/27 10:33:34;;;;;;;;;;;19.10;45.20;;;;;;1549109;75;1350;-67
2024/04/27 10:35:36;;;;;;;;;;;19.20;45.10;;;;;;1540286;75;1960;-69
2024/04/27 10:37:38;;;;;;;;;;;19.10;44.80;;;;;;1541913;75;616;-67
2024/04/27 10:39:47;;;;;;;;;;;19.10;44.70;;;;;;1548801;75;741;-66
2024/04/27 10:41:49;;;;;;;;;;;19.10;44.70;;;;;;1522270;76;1132;-67
2024/04/27 10:43:51;;;;;;;;;;;19.10;44.70;;;;;;1538710;75;628;-68
2024/04/27 10:45:53;;;;;;;;;;;19.10;44.50;;;;;;1536553;75;762;-69
2024/04/27 10:47:55;;;;;;;;;;;19.10;44.40;;;;;;1552872;75;1610;-68
2024/04/27 10:49:57;;;;;;;;;;;19.10;44.50;;;;;;1547328;75;683;-68
2024/04/27 10:51:59;;;;;;;;;;;19.20;44.30;;;;;;1539273;75;1084;-66
2024/04/27 10:54:00;;;;;;;;;;;19.10;44.00;;;;;;1545999;75;721;-67
2024/04/27 10:56:02;;;;;;;;;;;19.10;44.00;;;;;;1543513;75;1947;-66
2024/04/27 10:58:04;;;;;;;;;;;19.10;44.10;;;;;;1543916;75;782;-67
2024/04/27 11:00:06;;;;;;;;;;;19.10;44.00;;;;;;1539019;75;775;-68
2024/04/27 11:02:08;;;;;;;;;;;19.10;43.80;;;;;;1555171;75;1584;-67
2024/04/27 11:04:10;;;;;;;;;;;19.10;43.80;;;;;;1537601;75;752;-66
2024/04/27 11:06:12;;;;;;;;;;;19.10;43.70;;;;;;1543302;75;805;-67
2024/04/27 11:08:16;;;;;;;;;;;19.10;43.80;;;;;;1535977;75;694;-65
2024/04/27 11:10:17;;;;;;;;;;;19.10;43.60;;;;;;1539398;75;918;-66
2024/04/27 11:12:19;;;;;;;;;;;19.10;43.70;;;;;;1558802;75;1122;-67
2024/04/27 11:14:21;;;;;;;;;;;19.10;43.70;;;;;;1535210;75;761;-66
2024/04/27 11:16:23;;;;;;;;;;;19.10;43.60;;;;;;1540475;75;1947;-67
2024/04/27 11:18:25;;;;;;;;;;;19.10;43.40;;;;;;1543051;75;613;-66
2024/04/27 11:20:30;;;;;;;;;;;19.00;43.30;;;;;;1546134;75;622;-69
2024/04/27 11:22:32;;;;;;;;;;;19.10;43.20;;;;;;1560038;75;1155;-66
2024/04/27 11:24:34;;;;;;;;;;;19.10;43.10;;;;;;1547781;75;568;-66
2024/04/27 11:26:36;;;;;;;;;;;19.10;43.10;;;;;;1554846;75;805;-66
2024/04/27 11:28:38;;;;;;;;;;;19.10;43.00;;;;;;1547009;75;733;-68
2024/04/27 11:30:40;;;;;;;;;;;19.10;42.90;;;;;;1553760;75;1517;-66
2024/04/27 11:32:42;;;;;;;;;;;19.10;42.80;;;;;;1547465;75;1122;-66
2024/04/27 11:34:44;;;;;;;;;;;19.00;42.80;;;;;;1542483;75;1943;-67
2024/04/27 11:36:46;;;;;;;;;;;19.10;42.90;;;;;;1547921;75;737;-66
2024/04/27 11:38:48;;;;;;;;;;;19.00;42.70;;;;;;1543327;75;858;-69
2024/04/27 11:40:50;;;;;;;;;;;19.10;42.60;;;;;;1545839;75;1130;-67
2024/04/27 11:42:52;;;;;;;;;;;19.10;42.60;;;;;;1551746;75;1554;-66
2024/04/27 11:44:54;;;;;;;;;;;19.00;42.30;;;;;;1543922;75;752;-67
2024/04/27 11:46:56;;;;;;;;;;;19.00;42.30;;;;;;1545780;75;761;-66
2024/04/27 11:48:59;;;;;;;;;;;19.10;42.60;;;;;;1540800;75;657;-65
2024/04/27 11:51:01;;;;;;;;;;;19.00;42.30;;;;;;1550831;75;1256;-68
2024/04/27 11:53:03;;;;;;;;;;;19.10;42.50;;;;;;1545894;75;778;-67
2024/04/27 11:55:05;;;;;;;;;;;19.00;42.40;;;;;;1549117;75;1897;-67
2024/04/27 11:57:07;;;;;;;;;;;19.00;42.30;;;;;;1545431;75;1553;-66
2024/04/27 11:59:08;;;;;;;;;;;19.00;42.10;;;;;;1547317;75;806;-65
2024/04/27 12:01:10;;;;;;;;;;;19.00;42.10;;;;;;1543427;75;1147;-66
2024/04/27 12:03:12;;;;;;;;;;;19.10;42.40;;;;;;1556738;75;718;-68
2024/04/27 12:05:15;;;;;;;;;;;19.10;42.50;;;;;;1550566;75;744;-65
2024/04/27 12:07:17;;;;;;;;;;;19.00;42.50;;;;;;1547529;75;718;-67
2024/04/27 12:09:18;;;;;;;;;;;19.10;42.60;;;;;;1540542;75;701;-69
2024/04/27 12:11:20;;;;;;;;;;;19.00;42.30;;;;;;1543166;75;1571;-66
2024/04/27 12:13:22;;;;;;;;;;;19.00;42.30;;;;;;1564929;74;719;-66